Time;durP1;ratioP1;P1;durP2;ratioP2;P2;SDS_P1;SDS_P2;PMS_P1;PMS_P2;Temp;Humidity;BMP_temperature;BMP_pressure;BME280_temperature;BME280_humidity;BME280_pressure;Samples;Min_cycle;Max_cycle;Signal;HPM_P1;HPM_P2
2023/12/15 00:00:01;;;;;;;15.75;10.65;;;6.20;99.90;;;;;;4947780;29;20046;-54
2023/12/15 00:02:27;;;;;;;17.08;10.57;;;6.20;99.90;;;;;;4947535;29;20035;-52
2023/12/15 00:04:52;;;;;;;18.15;10.18;;;6.10;99.90;;;;;;4948965;28;20027;-54
2023/12/15 00:07:18;;;;;;;17.85;11.23;;;6.10;99.90;;;;;;4949841;28;20031;-53
2023/12/15 00:09:44;;;;;;;16.10;9.35;;;6.00;99.90;;;;;;4950723;28;20027;-56
2023/12/15 00:12:09;;;;;;;15.73;9.70;;;6.00;99.90;;;;;;4950448;28;20085;-52
2023/12/15 00:14:35;;;;;;;18.33;10.68;;;5.90;99.90;;;;;;4950472;29;20069;-53
2023/12/15 00:17:01;;;;;;;21.38;10.13;;;5.80;99.90;;;;;;4950611;28;20032;-50
2023/12/15 00:19:27;;;;;;;18.80;11.93;;;5.70;99.90;;;;;;4983641;22;20082;-50
2023/12/15 00:21:52;;;;;;;18.08;10.77;;;5.70;99.90;;;;;;4971429;28;20054;-50
2023/12/15 00:24:18;;;;;;;15.18;9.45;;;5.60;99.90;;;;;;4956626;28;20023;-52
2023/12/15 00:26:43;;;;;;;18.67;10.93;;;5.50;99.90;;;;;;5036338;28;20513;-51
2023/12/15 00:29:09;;;;;;;17.95;10.05;;;5.40;99.90;;;;;;5016479;28;20038;-49
2023/12/15 00:31:35;;;;;;;15.93;9.50;;;5.50;99.90;;;;;;4950432;28;20077;-52
2023/12/15 00:34:00;;;;;;;16.40;9.90;;;5.60;99.90;;;;;;4950433;29;20437;-49
2023/12/15 00:36:27;;;;;;;15.38;8.70;;;5.50;99.90;;;;;;4933314;29;20035;-53
2023/12/15 00:38:52;;;;;;;18.08;10.75;;;5.60;99.90;;;;;;4950241;29;20328;-49
2023/12/15 00:41:18;;;;;;;17.90;9.88;;;5.60;99.90;;;;;;4950303;29;20038;-51
2023/12/15 00:43:44;;;;;;;17.63;10.00;;;5.50;99.90;;;;;;4950410;29;20032;-46
2023/12/15 00:46:09;;;;;;;15.30;9.35;;;5.60;99.90;;;;;;4950290;29;20027;-48
2023/12/15 00:48:35;;;;;;;15.77;9.57;;;5.60;99.90;;;;;;4950160;29;20423;-46
2023/12/15 00:51:00;;;;;;;18.38;10.77;;;5.70;99.90;;;;;;4950365;29;20063;-49
2023/12/15 00:53:26;;;;;;;15.60;10.02;;;5.80;99.90;;;;;;4949991;28;20502;-47
2023/12/15 00:55:52;;;;;;;17.65;9.85;;;5.70;99.90;;;;;;4950892;29;20035;-48
2023/12/15 00:58:17;;;;;;;19.63;10.38;;;5.80;99.90;;;;;;4953589;29;20116;-48
2023/12/15 01:00:43;;;;;;;16.73;10.27;;;5.80;99.90;;;;;;4936883;29;20031;-51
2023/12/15 01:03:08;;;;;;;16.15;9.55;;;5.80;99.90;;;;;;4954017;29;20031;-48
2023/12/15 01:05:34;;;;;;;17.73;10.35;;;5.70;99.90;;;;;;4953243;29;20039;-49
2023/12/15 01:07:59;;;;;;;14.27;9.68;;;5.70;99.90;;;;;;4953636;29;20019;-50
2023/12/15 01:10:25;;;;;;;16.00;10.23;;;5.70;99.90;;;;;;4936163;28;20069;-53
2023/12/15 01:12:50;;;;;;;17.65;10.95;;;5.80;99.90;;;;;;4953461;29;20035;-49
2023/12/15 01:15:16;;;;;;;23.52;9.93;;;5.80;99.90;;;;;;4953505;29;20041;-49
2023/12/15 01:17:41;;;;;;;14.77;10.02;;;5.90;99.90;;;;;;4920432;29;20408;-51
2023/12/15 01:20:10;;;;;;;15.65;9.90;;;5.90;99.90;;;;;;4953172;29;20031;-52
2023/12/15 01:22:35;;;;;;;20.88;13.43;;;5.90;99.90;;;;;;4935685;29;20114;-53
2023/12/15 01:25:01;;;;;;;19.15;12.23;;;5.80;99.90;;;;;;4953414;29;20110;-49
2023/12/15 01:27:27;;;;;;;17.02;10.98;;;5.80;99.90;;;;;;4953232;29;20444;-48
2023/12/15 01:29:52;;;;;;;19.98;11.63;;;5.90;99.90;;;;;;4936048;28;20031;-48
2023/12/15 01:32:18;;;;;;;19.17;12.77;;;6.00;99.90;;;;;;4952825;29;20078;-54
2023/12/15 01:34:43;;;;;;;21.30;11.82;;;6.10;99.90;;;;;;4953431;28;20023;-54
2023/12/15 01:37:09;;;;;;;22.30;12.63;;;6.00;99.90;;;;;;4953191;29;20046;-50
2023/12/15 01:39:34;;;;;;;22.35;11.75;;;6.00;99.90;;;;;;4953101;29;20039;-51
2023/12/15 01:42:00;;;;;;;18.60;11.93;;;6.10;99.90;;;;;;4953148;29;20415;-49
2023/12/15 01:44:25;;;;;;;18.70;11.85;;;6.10;99.90;;;;;;4952844;29;20406;-47
2023/12/15 01:46:51;;;;;;;19.98;12.18;;;6.20;99.90;;;;;;4952816;29;20035;-47
2023/12/15 01:49:16;;;;;;;18.08;11.27;;;6.20;99.90;;;;;;4951508;29;20023;-49
2023/12/15 01:51:43;;;;;;;17.85;10.43;;;6.10;99.90;;;;;;4952703;29;20565;-47
2023/12/15 01:54:08;;;;;;;21.65;12.88;;;6.20;99.90;;;;;;4952823;29;20506;-46
2023/12/15 01:56:34;;;;;;;17.42;11.07;;;6.10;99.90;;;;;;4935690;28;20028;-48
2023/12/15 01:58:59;;;;;;;22.05;11.48;;;6.20;99.90;;;;;;4952713;29;20038;-47
2023/12/15 02:01:25;;;;;;;19.65;11.75;;;6.20;99.90;;;;;;4952572;29;20106;-49
2023/12/15 02:03:50;;;;;;;19.35;10.43;;;6.10;99.90;;;;;;4935304;28;20455;-48
2023/12/15 02:06:16;;;;;;;18.02;11.48;;;6.20;99.90;;;;;;4952610;28;20046;-47
2023/12/15 02:08:45;;;;;;;19.00;11.63;;;6.20;99.90;;;;;;4952283;29;20055;-48
2023/12/15 02:11:10;;;;;;;18.52;11.07;;;6.20;99.90;;;;;;4952426;29;20028;-52
2023/12/15 02:13:36;;;;;;;16.83;11.10;;;6.20;99.90;;;;;;4952421;29;20027;-48
2023/12/15 02:16:01;;;;;;;19.75;11.55;;;6.20;99.90;;;;;;4952502;29;20035;-50
2023/12/15 02:18:27;;;;;;;17.08;11.35;;;6.20;99.90;;;;;;4935634;29;20031;-47
2023/12/15 02:20:52;;;;;;;16.10;10.70;;;6.20;99.90;;;;;;4952221;29;20042;-46
2023/12/15 02:23:18;;;;;;;18.48;11.95;;;6.10;99.90;;;;;;4952204;29;20118;-47
2023/12/15 02:25:43;;;;;;;15.65;9.70;;;6.10;99.90;;;;;;4952296;28;20031;-47
2023/12/15 02:28:09;;;;;;;14.60;9.80;;;6.10;99.90;;;;;;4935221;28;20161;-47
2023/12/15 02:30:34;;;;;;;16.40;10.15;;;6.20;99.90;;;;;;4952457;29;20132;-47
2023/12/15 02:33:00;;;;;;;20.27;11.48;;;6.20;99.90;;;;;;4951911;29;20490;-53
2023/12/15 02:35:25;;;;;;;17.20;11.13;;;6.30;99.90;;;;;;4952079;29;20038;-47
2023/12/15 02:37:51;;;;;;;17.88;11.40;;;6.40;99.90;;;;;;4952197;29;20157;-47
2023/12/15 02:40:16;;;;;;;19.98;11.13;;;6.40;99.90;;;;;;4952079;29;20110;-47
2023/12/15 02:42:42;;;;;;;19.60;11.15;;;6.50;99.90;;;;;;4934585;28;20027;-52
2023/12/15 02:45:08;;;;;;;17.85;11.63;;;6.50;99.90;;;;;;4952118;29;20448;-47
2023/12/15 02:47:34;;;;;;;14.32;9.85;;;6.50;99.90;;;;;;4934793;28;20027;-47
2023/12/15 02:49:59;;;;;;;18.42;11.90;;;6.50;99.90;;;;;;4951891;29;20077;-47
2023/12/15 02:52:25;;;;;;;17.45;10.82;;;6.40;99.90;;;;;;4951728;29;20031;-48
2023/12/15 02:54:51;;;;;;;19.00;10.00;;;6.30;99.90;;;;;;4951984;29;20019;-52
2023/12/15 02:57:16;;;;;;;19.02;11.35;;;6.20;99.90;;;;;;4952014;29;20482;-46
2023/12/15 02:59:42;;;;;;;19.15;11.63;;;6.20;99.90;;;;;;4934635;28;20023;-47
2023/12/15 03:02:07;;;;;;;19.88;11.38;;;6.20;99.90;;;;;;4951914;29;20054;-53
2023/12/15 03:04:33;;;;;;;19.13;11.63;;;6.10;99.90;;;;;;4951439;29;20107;-50
2023/12/15 03:06:58;;;;;;;18.65;11.18;;;6.20;99.90;;;;;;4951679;29;20031;-50
2023/12/15 03:09:24;;;;;;;20.40;12.45;;;6.10;99.90;;;;;;4951745;29;20320;-49
2023/12/15 03:11:49;;;;;;;17.52;11.70;;;6.20;99.90;;;;;;4951463;28;20032;-50
2023/12/15 03:14:15;;;;;;;17.15;10.90;;;6.20;99.90;;;;;;4934273;28;20524;-53
2023/12/15 03:16:40;;;;;;;17.52;11.00;;;6.20;99.90;;;;;;4934353;28;20027;-51
2023/12/15 03:19:06;;;;;;;18.15;11.73;;;6.20;99.90;;;;;;4950492;28;20038;-52
2023/12/15 03:21:31;;;;;;;21.45;11.70;;;6.10;99.90;;;;;;4951393;29;20034;-50
2023/12/15 03:23:57;;;;;;;19.60;12.55;;;6.10;99.90;;;;;;4951484;29;20027;-49
2023/12/15 03:26:22;;;;;;;20.63;12.75;;;6.10;99.90;;;;;;4951341;29;20038;-52
2023/12/15 03:28:48;;;;;;;20.70;12.32;;;6.00;99.90;;;;;;4951273;29;20061;-50
2023/12/15 03:31:13;;;;;;;21.48;13.35;;;5.90;99.90;;;;;;4951089;29;20035;-49
2023/12/15 03:33:39;;;;;;;20.58;12.68;;;5.90;99.90;;;;;;4951353;29;20455;-52
2023/12/15 03:36:05;;;;;;;18.67;11.95;;;6.00;99.90;;;;;;4934005;29;20531;-55
2023/12/15 03:38:32;;;;;;;22.45;12.80;;;6.00;99.90;;;;;;4934015;28;20055;-53
2023/12/15 03:40:57;;;;;;;19.48;12.00;;;6.00;99.90;;;;;;4951209;29;20035;-49
2023/12/15 03:43:23;;;;;;;20.17;12.63;;;6.00;99.90;;;;;;4950914;29;20035;-51
2023/12/15 03:45:48;;;;;;;25.85;11.93;;;6.00;99.90;;;;;;4950943;29;20027;-51
2023/12/15 03:48:14;;;;;;;22.73;12.80;;;5.90;99.90;;;;;;4951126;29;20099;-49
2023/12/15 03:50:39;;;;;;;19.60;12.13;;;5.80;99.90;;;;;;4951034;29;20016;-51
2023/12/15 03:53:05;;;;;;;21.55;13.20;;;5.70;99.90;;;;;;4933688;29;20024;-52
2023/12/15 03:55:30;;;;;;;18.60;12.20;;;5.70;99.90;;;;;;4951100;29;20072;-49
2023/12/15 03:57:56;;;;;;;17.42;11.70;;;5.70;99.90;;;;;;4950880;29;20157;-49
2023/12/15 04:00:21;;;;;;;19.77;11.73;;;5.70;99.90;;;;;;4950933;29;20031;-51
2023/12/15 04:02:47;;;;;;;19.58;12.45;;;5.70;99.90;;;;;;4950602;28;20106;-54
2023/12/15 04:05:13;;;;;;;19.70;11.82;;;5.70;99.90;;;;;;4933309;28;20034;-49
2023/12/15 04:07:38;;;;;;;22.55;12.18;;;5.70;99.90;;;;;;4933707;28;20023;-47
2023/12/15 04:10:05;;;;;;;23.38;13.40;;;5.60;99.90;;;;;;4950698;29;20443;-49
2023/12/15 04:12:31;;;;;;;24.77;13.35;;;5.70;99.90;;;;;;4950576;29;20031;-47
2023/12/15 04:14:56;;;;;;;18.80;11.98;;;5.70;99.90;;;;;;4951182;29;20390;-48
2023/12/15 04:17:22;;;;;;;24.23;13.45;;;5.70;99.90;;;;;;4950767;29;20077;-51
2023/12/15 04:19:48;;;;;;;21.55;12.48;;;5.80;99.90;;;;;;4950500;29;20402;-51
2023/12/15 04:22:13;;;;;;;20.23;12.07;;;5.90;99.90;;;;;;4950028;29;20070;-52
2023/12/15 04:24:40;;;;;;;20.02;12.48;;;5.90;99.90;;;;;;4951592;29;20099;-51
2023/12/15 04:27:05;;;;;;;19.63;12.55;;;5.80;99.90;;;;;;4951138;29;20387;-48
2023/12/15 04:29:31;;;;;;;21.45;13.13;;;5.80;99.90;;;;;;4951762;28;20034;-47
2023/12/15 04:31:56;;;;;;;24.70;12.60;;;5.80;99.90;;;;;;4954126;29;20046;-49
2023/12/15 04:34:22;;;;;;;17.50;11.88;;;5.90;99.90;;;;;;4954170;28;20028;-47
2023/12/15 04:36:47;;;;;;;20.58;13.00;;;5.90;99.90;;;;;;4936803;29;20517;-50
2023/12/15 04:39:13;;;;;;;22.08;12.43;;;5.90;99.90;;;;;;4952629;29;20027;-50
2023/12/15 04:41:38;;;;;;;19.80;13.15;;;5.90;99.90;;;;;;4953823;29;20032;-47
2023/12/15 04:44:04;;;;;;;23.75;13.88;;;6.00;99.90;;;;;;4953765;29;20528;-47
2023/12/15 04:46:30;;;;;;;21.80;13.13;;;6.00;99.90;;;;;;4953941;29;20027;-47
2023/12/15 04:49:01;;;;;;;20.65;13.32;;;5.90;99.90;;;;;;4953811;29;20027;-47
2023/12/15 04:51:26;;;;;;;23.10;13.60;;;5.80;99.90;;;;;;4953773;29;20034;-47
2023/12/15 04:53:52;;;;;;;23.95;13.88;;;5.80;99.90;;;;;;4953628;29;20019;-47
2023/12/15 04:56:18;;;;;;;20.90;13.25;;;5.80;99.90;;;;;;4953692;29;20157;-47
2023/12/15 04:58:44;;;;;;;22.83;14.27;;;5.90;99.90;;;;;;4953497;29;20089;-48
2023/12/15 05:01:13;;;;;;;24.23;14.70;;;5.90;99.90;;;;;;4936331;29;20057;-47
2023/12/15 05:03:40;;;;;;;27.33;13.90;;;5.90;99.90;;;;;;4936255;28;20058;-48
2023/12/15 05:06:06;;;;;;;25.00;14.90;;;5.90;99.90;;;;;;4953299;29;20034;-51
2023/12/15 05:08:32;;;;;;;24.15;15.55;;;5.90;99.90;;;;;;4953499;29;20110;-52
2023/12/15 05:10:57;;;;;;;23.25;15.23;;;5.80;99.90;;;;;;4953759;29;20110;-48
2023/12/15 05:13:23;;;;;;;24.90;13.75;;;5.90;99.90;;;;;;4953210;29;20058;-47
2023/12/15 05:15:49;;;;;;;21.83;12.88;;;5.80;99.90;;;;;;4953474;29;20036;-50
2023/12/15 05:18:16;;;;;;;25.33;13.90;;;5.70;99.90;;;;;;4953106;29;20152;-47
2023/12/15 05:20:42;;;;;;;25.42;14.25;;;5.70;99.90;;;;;;4953331;29;20038;-55
2023/12/15 05:23:08;;;;;;;20.45;12.45;;;5.70;99.90;;;;;;4952938;29;20031;-52
2023/12/15 05:25:34;;;;;;;23.27;12.45;;;5.70;99.90;;;;;;4935967;29;20042;-49
2023/12/15 05:27:59;;;;;;;23.77;12.75;;;5.60;99.90;;;;;;4953102;29;20028;-51
2023/12/15 05:30:25;;;;;;;22.63;12.90;;;5.60;99.90;;;;;;4953023;29;20098;-50
2023/12/15 05:32:50;;;;;;;19.27;11.88;;;5.60;99.90;;;;;;4952764;29;20024;-51
2023/12/15 05:35:16;;;;;;;20.02;12.23;;;5.50;99.90;;;;;;4953043;29;20031;-48
2023/12/15 05:37:41;;;;;;;16.23;10.85;;;5.60;99.90;;;;;;4953074;29;20027;-49
2023/12/15 05:40:11;;;;;;;22.67;11.48;;;5.50;99.90;;;;;;4952877;29;20042;-52
2023/12/15 05:42:37;;;;;;;18.85;11.95;;;5.50;99.90;;;;;;4952129;29;20027;-49
2023/12/15 05:45:03;;;;;;;19.17;11.30;;;5.50;99.90;;;;;;4951621;29;20023;-52
2023/12/15 05:47:29;;;;;;;19.75;10.65;;;5.50;99.90;;;;;;4952858;28;20069;-49
2023/12/15 05:49:54;;;;;;;19.08;10.63;;;5.40;99.90;;;;;;4952936;29;20051;-47
2023/12/15 05:52:21;;;;;;;15.88;10.52;;;5.40;99.90;;;;;;4935240;28;20560;-45
2023/12/15 05:54:46;;;;;;;21.20;10.60;;;5.40;99.90;;;;;;4952912;29;20027;-48
2023/12/15 05:57:12;;;;;;;18.55;10.85;;;5.50;99.90;;;;;;4935721;29;20487;-46
2023/12/15 05:59:37;;;;;;;16.95;10.23;;;5.50;99.90;;;;;;4951402;29;20035;-53
2023/12/15 06:02:03;;;;;;;17.08;10.55;;;5.50;99.90;;;;;;4952559;29;20158;-49
2023/12/15 06:04:28;;;;;;;18.83;11.52;;;5.50;99.90;;;;;;4935011;29;20034;-51
2023/12/15 06:06:54;;;;;;;20.15;11.00;;;5.60;99.90;;;;;;4951258;29;20532;-49
2023/12/15 06:09:20;;;;;;;17.65;10.40;;;5.60;99.90;;;;;;4935292;28;20100;-56
2023/12/15 06:11:45;;;;;;;19.33;11.10;;;5.60;99.90;;;;;;4952455;29;20114;-51
2023/12/15 06:14:11;;;;;;;20.80;12.40;;;5.60;99.90;;;;;;4952460;29;20027;-53
2023/12/15 06:16:37;;;;;;;23.60;12.00;;;5.60;99.90;;;;;;4935117;28;20035;-52
2023/12/15 06:19:02;;;;;;;23.70;12.82;;;5.60;99.90;;;;;;4951590;29;20112;-53
2023/12/15 06:21:29;;;;;;;23.95;12.20;;;5.60;99.90;;;;;;4952254;29;20049;-53
2023/12/15 06:23:54;;;;;;;22.42;11.93;;;5.60;99.90;;;;;;4952255;29;20032;-54
2023/12/15 06:26:21;;;;;;;20.35;12.20;;;5.60;99.90;;;;;;4952401;29;20028;-49
2023/12/15 06:28:47;;;;;;;26.45;12.95;;;5.60;99.90;;;;;;4952247;29;20051;-51
2023/12/15 06:31:13;;;;;;;21.50;13.23;;;5.60;99.90;;;;;;4952035;29;20454;-51
2023/12/15 06:33:38;;;;;;;23.75;13.27;;;5.50;99.90;;;;;;4952170;29;20023;-54
2023/12/15 06:36:05;;;;;;;27.17;14.73;;;5.50;99.90;;;;;;4935054;29;20407;-53
2023/12/15 06:38:31;;;;;;;24.25;13.27;;;5.50;99.90;;;;;;4952208;29;20180;-50
2023/12/15 06:40:56;;;;;;;30.30;14.00;;;5.40;99.90;;;;;;4952192;29;20495;-50
2023/12/15 06:43:22;;;;;;;26.48;14.95;;;5.50;99.90;;;;;;4951864;29;20379;-48
2023/12/15 06:45:48;;;;;;;30.95;16.33;;;5.40;99.90;;;;;;4951865;29;20483;-52
2023/12/15 06:48:13;;;;;;;29.40;15.90;;;5.40;99.90;;;;;;4952041;29;20114;-50
2023/12/15 06:50:39;;;;;;;23.10;13.70;;;5.40;99.90;;;;;;4951978;29;20023;-53
2023/12/15 06:53:04;;;;;;;23.77;13.90;;;5.50;99.90;;;;;;4933699;29;20028;-48
2023/12/15 06:55:30;;;;;;;24.70;13.65;;;5.40;99.90;;;;;;4951551;29;20090;-47
2023/12/15 06:57:55;;;;;;;26.02;14.30;;;5.40;99.90;;;;;;4951832;29;20039;-51
2023/12/15 07:00:21;;;;;;;25.40;13.98;;;5.40;99.90;;;;;;4951676;29;20506;-48
2023/12/15 07:02:47;;;;;;;29.42;14.40;;;5.40;99.90;;;;;;4950540;29;20397;-48
2023/12/15 07:05:12;;;;;;;23.65;13.93;;;5.30;99.90;;;;;;4952183;29;20027;-50
2023/12/15 07:07:38;;;;;;;21.88;13.40;;;5.40;99.90;;;;;;4950557;29;20027;-51
2023/12/15 07:10:04;;;;;;;27.00;13.20;;;5.30;99.90;;;;;;4951717;29;20034;-47
2023/12/15 07:12:29;;;;;;;25.90;14.25;;;5.30;99.90;;;;;;4951527;29;20024;-48
2023/12/15 07:14:55;;;;;;;25.30;13.68;;;5.30;99.90;;;;;;4951789;29;20030;-48
2023/12/15 07:17:20;;;;;;;26.85;13.95;;;5.20;99.90;;;;;;4951723;28;20035;-50
2023/12/15 07:19:46;;;;;;;25.13;13.27;;;5.20;99.90;;;;;;4934393;28;20051;-53
2023/12/15 07:22:13;;;;;;;21.67;12.70;;;5.10;99.90;;;;;;4951396;29;20031;-54
2023/12/15 07:24:40;;;;;;;24.58;13.73;;;5.10;99.90;;;;;;4934304;29;20031;-48
2023/12/15 07:27:06;;;;;;;22.77;13.10;;;5.10;99.90;;;;;;4951477;29;20418;-48
2023/12/15 07:29:32;;;;;;;22.08;12.57;;;5.20;99.90;;;;;;4951451;29;20023;-48
2023/12/15 07:31:57;;;;;;;23.00;13.75;;;5.10;99.90;;;;;;4951565;29;20386;-47
2023/12/15 07:34:23;;;;;;;21.15;12.10;;;5.10;99.90;;;;;;4951196;29;20030;-49
2023/12/15 07:36:48;;;;;;;23.38;13.30;;;5.10;99.90;;;;;;4951194;29;20038;-47
2023/12/15 07:39:20;;;;;;;23.63;13.65;;;5.00;99.90;;;;;;4933910;28;20122;-50
2023/12/15 07:41:46;;;;;;;27.35;14.15;;;5.00;99.90;;;;;;4951138;29;20031;-50
2023/12/15 07:44:13;;;;;;;25.92;13.80;;;4.90;99.90;;;;;;4950909;29;20367;-53
2023/12/15 07:46:38;;;;;;;25.25;13.32;;;4.90;99.90;;;;;;4951253;29;20105;-49
2023/12/15 07:49:05;;;;;;;22.98;13.48;;;4.80;99.90;;;;;;4951255;29;20502;-52
2023/12/15 07:51:31;;;;;;;20.95;12.77;;;4.80;99.90;;;;;;4951142;29;20497;-53
2023/12/15 07:53:56;;;;;;;30.42;13.65;;;4.70;99.90;;;;;;4950946;28;20032;-51
2023/12/15 07:56:24;;;;;;;22.35;12.93;;;4.80;99.90;;;;;;4933918;29;20027;-49
2023/12/15 07:58:50;;;;;;;22.98;12.13;;;4.80;99.90;;;;;;4950951;29;20027;-51
2023/12/15 08:01:17;;;;;;;24.45;12.70;;;4.80;99.90;;;;;;4950925;29;20362;-54
2023/12/15 08:03:43;;;;;;;18.90;12.63;;;4.80;99.90;;;;;;4951064;29;20023;-54
2023/12/15 08:06:08;;;;;;;22.13;12.35;;;5.00;99.90;;;;;;4950156;29;20035;-52
2023/12/15 08:08:34;;;;;;;22.83;13.00;;;5.00;99.90;;;;;;4950767;29;20513;-54
2023/12/15 08:10:59;;;;;;;26.48;13.25;;;5.10;99.90;;;;;;4933568;28;20023;-54
2023/12/15 08:13:25;;;;;;;22.67;12.82;;;5.30;99.90;;;;;;4933441;29;20042;-54
2023/12/15 08:15:50;;;;;;;22.52;12.32;;;5.30;99.90;;;;;;4950923;29;20027;-48
2023/12/15 08:18:15;;;;;;;22.08;12.48;;;5.40;99.90;;;;;;4950645;29;20043;-53
2023/12/15 08:20:41;;;;;;;23.23;11.70;;;5.50;99.90;;;;;;4949450;29;20122;-51
2023/12/15 08:23:07;;;;;;;21.77;12.90;;;5.60;99.90;;;;;;4950655;29;20494;-52
2023/12/15 08:25:32;;;;;;;21.90;12.98;;;5.60;99.90;;;;;;4950617;29;20027;-54
2023/12/15 08:27:58;;;;;;;20.40;12.02;;;5.60;99.90;;;;;;4950493;29;20023;-49
2023/12/15 08:30:23;;;;;;;17.73;11.55;;;5.60;99.90;;;;;;4949325;29;20023;-54
2023/12/15 08:32:49;;;;;;;17.67;11.13;;;5.50;99.90;;;;;;4949077;29;20033;-54
2023/12/15 08:35:14;;;;;;;22.35;12.75;;;5.50;99.90;;;;;;4950490;29;20023;-52
2023/12/15 08:37:40;;;;;;;21.98;12.07;;;5.50;99.90;;;;;;4950522;29;20735;-52
2023/12/15 08:40:06;;;;;;;18.67;11.88;;;5.50;99.90;;;;;;4950558;28;20059;-53
2023/12/15 08:42:31;;;;;;;20.52;11.85;;;5.50;99.90;;;;;;4950070;29;20058;-53
2023/12/15 08:44:57;;;;;;;20.70;12.45;;;5.50;99.90;;;;;;4950337;29;20055;-52
2023/12/15 08:47:22;;;;;;;23.33;11.88;;;5.50;99.90;;;;;;4950325;29;20410;-50
2023/12/15 08:49:48;;;;;;;22.10;12.77;;;5.60;99.90;;;;;;4950177;29;20032;-52
2023/12/15 08:52:13;;;;;;;19.10;11.80;;;5.60;99.90;;;;;;4950120;29;20449;-55
2023/12/15 08:54:39;;;;;;;22.77;12.50;;;5.70;99.90;;;;;;4950335;29;20062;-50
2023/12/15 08:57:05;;;;;;;32.22;13.13;;;5.70;99.90;;;;;;4950374;29;20126;-49
2023/12/15 08:59:30;;;;;;;21.95;13.45;;;5.70;99.90;;;;;;4950406;29;20031;-50
2023/12/15 09:01:56;;;;;;;18.52;11.38;;;5.70;99.90;;;;;;4932945;29;20027;-56
2023/12/15 09:04:21;;;;;;;20.80;12.07;;;5.70;99.90;;;;;;4949707;29;20484;-51
2023/12/15 09:06:47;;;;;;;20.25;12.10;;;5.80;99.90;;;;;;4950364;29;20023;-50
2023/12/15 09:09:12;;;;;;;19.80;12.07;;;5.80;99.90;;;;;;4950033;29;20039;-51
2023/12/15 09:11:38;;;;;;;22.35;12.88;;;5.80;99.90;;;;;;4950187;29;20023;-49
2023/12/15 09:14:03;;;;;;;21.92;12.85;;;6.10;99.90;;;;;;4949947;29;20023;-53
2023/12/15 09:16:29;;;;;;;16.70;10.98;;;6.70;99.90;;;;;;4932912;29;20512;-54
2023/12/15 09:18:54;;;;;;;16.05;10.20;;;7.60;99.90;;;;;;4953119;29;20095;-56
2023/12/15 09:21:20;;;;;;;15.32;9.38;;;8.60;99.90;;;;;;4953259;29;20555;-49
2023/12/15 09:23:47;;;;;;;15.23;9.50;;;9.50;99.90;;;;;;4953294;29;20095;-48
2023/12/15 09:26:12;;;;;;;17.02;9.52;;;9.80;99.90;;;;;;4953433;29;20454;-53
2023/12/15 09:28:38;;;;;;;20.17;9.88;;;9.60;99.90;;;;;;4953325;29;20051;-51
2023/12/15 09:31:04;;;;;;;17.45;10.63;;;9.30;99.90;;;;;;4953271;29;20102;-52
2023/12/15 09:33:29;;;;;;;19.48;12.10;;;8.80;99.90;;;;;;4936041;29;20491;-50
2023/12/15 09:35:56;;;;;;;16.85;11.27;;;8.50;99.90;;;;;;4953182;29;20061;-52
2023/12/15 09:38:21;;;;;;;22.15;11.82;;;8.10;99.90;;;;;;4953137;29;20024;-54
2023/12/15 09:40:47;;;;;;;16.38;11.23;;;7.80;99.90;;;;;;4953041;29;20122;-53
2023/12/15 09:43:13;;;;;;;21.70;12.45;;;7.60;99.90;;;;;;4952838;29;20035;-51
2023/12/15 09:45:39;;;;;;;21.80;12.23;;;7.50;99.90;;;;;;4953036;29;20037;-52
2023/12/15 09:48:07;;;;;;;22.20;13.20;;;7.30;99.90;;;;;;4952850;29;20023;-52
2023/12/15 09:50:33;;;;;;;17.67;13.20;;;7.30;99.90;;;;;;4953006;29;20128;-52
2023/12/15 09:53:02;;;;;;;21.88;12.93;;;7.30;99.90;;;;;;4952801;29;20434;-49
2023/12/15 09:55:30;;;;;;;18.77;12.75;;;7.30;99.90;;;;;;4952665;29;20023;-53
2023/12/15 09:57:58;;;;;;;18.95;13.38;;;7.50;99.90;;;;;;4952681;29;20487;-49
2023/12/15 10:00:23;;;;;;;20.88;13.63;;;7.50;99.90;;;;;;4952672;29;20039;-49
2023/12/15 10:02:49;;;;;;;22.17;12.85;;;7.50;99.90;;;;;;4952492;28;20157;-53
2023/12/15 10:05:15;;;;;;;19.08;13.43;;;7.60;99.90;;;;;;4952270;29;20501;-52
2023/12/15 10:07:40;;;;;;;20.48;12.93;;;7.60;99.90;;;;;;4935521;29;20506;-52
2023/12/15 10:10:06;;;;;;;19.60;12.70;;;7.70;99.90;;;;;;4952359;29;20161;-48
2023/12/15 10:12:32;;;;;;;20.40;13.93;;;7.80;99.90;;;;;;4952326;29;20502;-48
2023/12/15 10:14:57;;;;;;;26.00;14.52;;;7.70;99.90;;;;;;4952782;28;20102;-47
2023/12/15 10:17:23;;;;;;;24.45;12.80;;;7.60;99.90;;;;;;4955061;28;20023;-50
2023/12/15 10:19:48;;;;;;;20.80;13.27;;;7.60;99.90;;;;;;4952430;29;20039;-52
2023/12/15 10:22:14;;;;;;;20.35;14.05;;;7.60;99.90;;;;;;4961476;28;20067;-47
2023/12/15 10:24:39;;;;;;;24.58;14.57;;;7.50;99.90;;;;;;4954430;28;20035;-56
2023/12/15 10:27:08;;;;;;;22.58;14.30;;;7.50;99.90;;;;;;4957110;28;20059;-57
2023/12/15 10:29:37;;;;;;;21.10;14.32;;;7.50;99.90;;;;;;4951966;28;20103;-53
2023/12/15 10:32:04;;;;;;;22.30;13.27;;;7.40;99.90;;;;;;4953506;28;20027;-51
2023/12/15 10:34:30;;;;;;;23.98;13.98;;;7.40;99.90;;;;;;4969496;28;20030;-53
2023/12/15 10:36:55;;;;;;;21.65;14.15;;;7.40;99.90;;;;;;4952392;28;20125;-57
2023/12/15 10:39:22;;;;;;;19.65;13.15;;;7.30;99.90;;;;;;4971268;28;20058;-50
2023/12/15 10:41:49;;;;;;;22.05;13.93;;;7.30;99.90;;;;;;4971137;28;20092;-51
2023/12/15 10:44:15;;;;;;;27.52;15.25;;;7.30;99.90;;;;;;4971261;28;20031;-50
2023/12/15 10:46:42;;;;;;;27.95;14.95;;;7.40;99.90;;;;;;4971194;28;20037;-49
2023/12/15 10:49:09;;;;;;;22.27;15.10;;;7.40;99.90;;;;;;4971195;28;20489;-50
2023/12/15 10:51:37;;;;;;;22.23;15.20;;;7.40;99.90;;;;;;4953640;28;20033;-52
2023/12/15 10:54:05;;;;;;;25.17;15.15;;;7.40;99.90;;;;;;4970915;28;20122;-52
2023/12/15 10:56:31;;;;;;;28.80;16.52;;;7.50;99.90;;;;;;4971149;28;20074;-54
2023/12/15 10:58:58;;;;;;;25.23;16.55;;;7.40;99.90;;;;;;4954040;28;20068;-50
2023/12/15 11:01:27;;;;;;;24.00;16.48;;;7.30;99.90;;;;;;4971535;28;20543;-55
2023/12/15 11:03:52;;;;;;;24.05;15.20;;;7.40;99.90;;;;;;4954216;28;20118;-50
2023/12/15 11:06:31;;;;;;;26.15;14.90;;;7.40;99.90;;;;;;4971417;28;20168;-51
2023/12/15 11:09:01;;;;;;;24.67;15.73;;;7.50;99.90;;;;;;4968552;28;20038;-58
2023/12/15 11:11:29;;;;;;;28.25;15.15;;;7.40;99.90;;;;;;4944475;28;20119;-55
2023/12/15 11:14:04;;;;;;;25.80;14.43;;;7.50;99.90;;;;;;4941676;29;20027;-56
2023/12/15 11:16:37;;;;;;;26.70;14.90;;;7.50;99.90;;;;;;4951646;29;20031;-55
2023/12/15 11:19:02;;;;;;;25.50;14.88;;;7.50;99.90;;;;;;4969546;28;20046;-50
2023/12/15 11:21:29;;;;;;;23.15;14.52;;;7.60;99.90;;;;;;4971272;28;20027;-54
2023/12/15 11:24:04;;;;;;;25.73;15.75;;;7.60;99.90;;;;;;4968742;28;20023;-53
2023/12/15 11:26:34;;;;;;;18.95;14.25;;;7.60;99.90;;;;;;4965733;28;20114;-54
2023/12/15 11:29:03;;;;;;;25.40;15.38;;;7.70;99.90;;;;;;4970413;28;20034;-54
2023/12/15 11:31:29;;;;;;;22.10;14.57;;;7.60;99.90;;;;;;4970474;28;20084;-54
2023/12/15 11:33:55;;;;;;;24.55;15.35;;;7.70;99.90;;;;;;4968846;28;20116;-53
2023/12/15 11:36:21;;;;;;;25.27;14.98;;;7.80;99.90;;;;;;4953728;28;20058;-50
2023/12/15 11:38:49;;;;;;;22.00;14.77;;;7.80;99.90;;;;;;4951804;28;20034;-54
2023/12/15 11:41:20;;;;;;;24.42;14.23;;;7.80;99.90;;;;;;4950526;28;20028;-47
2023/12/15 11:43:45;;;;;;;20.17;14.57;;;7.80;99.90;;;;;;4951185;28;20031;-49
2023/12/15 11:46:11;;;;;;;18.85;13.15;;;7.90;99.90;;;;;;4952339;28;20383;-49
2023/12/15 11:48:37;;;;;;;23.88;14.68;;;8.00;99.90;;;;;;4970301;28;20018;-54
2023/12/15 11:51:03;;;;;;;24.67;13.95;;;7.90;99.90;;;;;;4970083;28;20082;-55
2023/12/15 11:53:29;;;;;;;21.30;14.05;;;7.90;99.90;;;;;;4951112;28;20058;-52
2023/12/15 11:55:57;;;;;;;22.52;14.60;;;7.90;99.90;;;;;;4970278;28;20057;-53
2023/12/15 11:58:23;;;;;;;24.90;14.98;;;7.80;99.90;;;;;;4969824;28;20023;-54
2023/12/15 12:00:48;;;;;;;26.45;14.93;;;7.90;99.90;;;;;;4970162;28;20055;-56
2023/12/15 12:03:19;;;;;;;23.23;14.48;;;7.90;99.90;;;;;;4969805;28;20038;-53
2023/12/15 12:05:45;;;;;;;22.95;14.05;;;8.00;99.90;;;;;;4962874;28;20407;-56
2023/12/15 12:08:11;;;;;;;23.90;14.32;;;7.90;99.90;;;;;;4950782;29;20023;-55
2023/12/15 12:10:39;;;;;;;23.73;14.30;;;8.00;99.90;;;;;;4960862;28;20098;-59
2023/12/15 12:13:06;;;;;;;24.75;14.27;;;8.00;99.90;;;;;;4948275;28;20062;-61
2023/12/15 12:15:31;;;;;;;26.67;14.40;;;8.00;99.90;;;;;;4961807;28;20042;-54
2023/12/15 12:17:57;;;;;;;21.15;13.20;;;8.00;99.90;;;;;;4969591;28;20084;-57
2023/12/15 12:20:27;;;;;;;27.90;15.38;;;8.00;99.90;;;;;;4978916;23;20051;-46
2023/12/15 12:22:53;;;;;;;28.75;19.25;;;8.10;99.90;;;;;;4979942;28;20034;-51
2023/12/15 12:25:18;;;;;;;34.17;22.08;;;8.00;99.90;;;;;;4952688;28;20146;-45
2023/12/15 12:27:45;;;;;;;20.77;13.73;;;8.10;99.90;;;;;;4982974;28;20034;-51
2023/12/15 12:30:12;;;;;;;27.35;14.50;;;8.10;99.90;;;;;;4989043;28;20027;-48